Hlavní strana
METAR-TAF:

METAR-TAF

Letiště :

Nukus, Uzbekistán

zeměpisná šířka: 42-28-48N, zeměpisná délka: 059-37-48E, výška: 77 m

Aktuální stav počasí

Zpráva byla vytvořena před 14 minutami, v 14:00 UTC
Východní vítr 2 kt
Teplota -1°C
Vlhkost vzduchu 40%
Tlak 1024 hPa
Viditelnost 10 km a více
Žádná oblačnost pod 1500 m, nevyskytují se cumulonimby.

METAR: UTNN 251400Z 08002KT CAVOK M01/M13 Q1024 R33/CLRD60 NOSIG

Čas: 19:14 (14:14 UTC)

Předpověď počasí

Zpráva byla vytvořena před 3 hodinami a 14 minutami, v 11:00 UTC
Předpověď platná od 25 v 12 UTC do 26 v 12 UTC
vítr z různých směrů 4 kt
Viditelnost 10 km a více
Polojasno ve výšce 4000 ft
Oblačno až skoro zataženo ve výšce 10000 ft
Dočasný
od 26 v 00 UTC do 26 v 04 UTC
Viditelnost: 0800 m
Zataženo ve výšce 200 ft
mrznoucí mlha
Dočasný
od 26 v 04 UTC do 26 v 12 UTC
Jihojihovýchodní vítr 8 kt s nárazy do 18 kt

TAF: UTNN 251100Z 2512/2612 VRB04KT 9999 SCT040 BKN100 TEMPO 2600/2604 0800 FZFG OVC002 TEMPO 2604/2612 16008G18KT

Stav a předpovědi počasí z více než 4 000 letišť (zprávy METAR a TAF).

Červené a žluté tečky na mapě představují dostupné meteorologické stanice.

Když kurzor umístíte na tečku, zobrazí se název stanice.

Pak kliknutím zobrazíte stav a předpověď počasí.

Chcete-li změnit mapu, kliknutím na zelené tlačítko se znaménkem +mapu přiblížíte, kliknutím na zelené tlačítko se znaménkem – mapu oddálíte a kliknutím na zelené šipky přejdete na sousední mapy.


METAR-TAF: